createdAt,value
2023-02-27T00:05:35.076Z,69.87
2023-02-27T00:15:36.890Z,70.23
2023-02-27T00:25:36.982Z,70.47
2023-02-27T00:35:37.110Z,70.73
2023-02-27T00:45:36.977Z,70.83
2023-02-27T00:55:37.100Z,70.99
2023-02-27T01:05:37.096Z,71.08
2023-02-27T01:15:37.132Z,71.18
2023-02-27T01:25:37.035Z,71.29
2023-02-27T01:35:37.349Z,71.45
2023-02-27T01:45:37.191Z,71.57
2023-02-27T01:55:37.967Z,71.69
2023-02-27T02:05:38.086Z,71.80
2023-02-27T02:15:38.065Z,71.88
2023-02-27T02:25:38.065Z,71.96
2023-02-27T02:35:38.136Z,72.11
2023-02-27T02:45:38.108Z,72.21
2023-02-27T02:55:38.237Z,72.32
2023-02-27T03:05:38.422Z,72.53
2023-02-27T03:15:38.241Z,72.67
2023-02-27T03:25:38.500Z,72.78
2023-02-27T03:35:38.573Z,72.93
2023-02-27T03:45:38.365Z,73.04
2023-02-27T03:55:38.560Z,73.28
2023-02-27T04:05:40.003Z,73.53
2023-02-27T04:15:40.267Z,73.76
2023-02-27T04:25:40.539Z,73.99
2023-02-27T04:35:40.371Z,74.16
2023-02-27T04:45:41.016Z,74.33
2023-02-27T04:55:41.323Z,74.51
2023-02-27T05:05:41.365Z,74.68
2023-02-27T05:15:41.359Z,74.82
2023-02-27T05:25:41.396Z,74.96
2023-02-27T05:35:41.461Z,75.06
2023-02-27T05:45:41.483Z,75.16
2023-02-27T05:55:41.812Z,75.29
2023-02-27T06:05:42.441Z,75.37
2023-02-27T06:15:42.370Z,75.51
2023-02-27T06:25:42.453Z,75.57
2023-02-27T06:35:42.526Z,75.55
2023-02-27T06:45:42.506Z,75.66
2023-02-27T06:55:42.552Z,75.68
2023-02-27T07:05:42.495Z,75.64
2023-02-27T07:15:43.114Z,75.57
2023-02-27T07:25:43.467Z,75.48
2023-02-27T07:35:43.528Z,75.41
2023-02-27T07:45:43.533Z,75.35
2023-02-27T07:55:43.484Z,75.33
2023-02-27T08:05:43.557Z,75.28
2023-02-27T08:15:43.531Z,75.05
2023-02-27T08:25:43.500Z,74.69
2023-02-27T08:35:43.707Z,74.13
2023-02-27T08:45:43.591Z,73.12
2023-02-27T08:55:43.813Z,69.31
2023-02-27T09:05:43.643Z,66.16
2023-02-27T09:15:43.654Z,60.90
2023-02-27T09:25:43.631Z,57.81
2023-02-27T09:35:43.715Z,55.24
2023-02-27T09:45:44.156Z,52.96
2023-02-27T09:55:44.672Z,52.04
2023-02-27T10:05:44.690Z,52.49
2023-02-27T10:15:44.603Z,52.88
2023-02-27T10:25:45.275Z,53.60
2023-02-27T10:35:46.514Z,53.87
2023-02-27T10:45:46.739Z,53.11
2023-02-27T10:55:46.632Z,53.60
2023-02-27T11:05:46.751Z,53.95
2023-02-27T11:15:46.928Z,54.34
2023-02-27T11:25:46.726Z,54.92
2023-02-27T11:35:46.938Z,54.76
2023-02-27T11:46:21.438Z,54.77
2023-02-27T11:55:48.808Z,55.06
2023-02-27T12:05:48.930Z,55.24
2023-02-27T12:15:48.987Z,55.44
2023-02-27T12:25:48.917Z,55.45
2023-02-27T12:35:48.928Z,55.71
2023-02-27T12:45:48.897Z,55.86
2023-02-27T12:55:48.935Z,55.71
2023-02-27T13:05:48.940Z,55.64
2023-02-27T13:15:50.561Z,55.02
2023-02-27T13:25:50.921Z,54.98
2023-02-27T13:35:50.996Z,54.20
2023-02-27T13:45:51.006Z,54.19
2023-02-27T13:55:50.974Z,53.95
2023-02-27T14:05:50.941Z,53.89
2023-02-27T14:15:51.291Z,53.94
2023-02-27T14:25:52.025Z,53.26
2023-02-27T14:35:52.091Z,53.01
2023-02-27T14:45:52.032Z,52.71
2023-02-27T14:55:52.035Z,52.74
2023-02-27T15:05:52.106Z,52.63
2023-02-27T15:15:54.468Z,52.73
2023-02-27T15:25:54.987Z,53.08
2023-02-27T15:35:55.311Z,53.01
2023-02-27T15:45:57.763Z,53.17
2023-02-27T15:55:58.000Z,53.57
2023-02-27T16:05:58.097Z,53.40
2023-02-27T16:15:58.188Z,53.85
2023-02-27T16:25:58.105Z,54.31
2023-02-27T16:35:58.238Z,54.76
2023-02-27T16:45:58.187Z,55.34
2023-02-27T16:55:58.147Z,56.02
2023-02-27T17:05:58.229Z,56.71
2023-02-27T17:15:58.144Z,57.39
2023-02-27T17:25:58.202Z,58.06
2023-02-27T17:35:58.263Z,58.68
2023-02-27T17:45:58.278Z,59.23
2023-02-27T17:55:58.311Z,59.67
2023-02-27T18:05:58.208Z,60.13
2023-02-27T18:15:58.378Z,60.53
2023-02-27T18:26:01.671Z,60.81
2023-02-27T18:36:02.233Z,61.01
2023-02-27T18:46:02.287Z,61.13
2023-02-27T18:56:02.284Z,61.29
2023-02-27T19:06:02.325Z,61.35
2023-02-27T19:16:04.128Z,61.47
2023-02-27T19:26:04.333Z,61.67
2023-02-27T19:36:04.418Z,62.02
2023-02-27T19:46:04.344Z,62.10
2023-02-27T19:56:04.425Z,62.47
2023-02-27T20:06:05.840Z,62.74
2023-02-27T20:16:06.866Z,63.07
2023-02-27T20:26:07.485Z,63.41
2023-02-27T20:36:08.223Z,63.73
2023-02-27T20:46:08.706Z,64.03
2023-02-27T20:56:09.430Z,64.30
2023-02-27T21:06:09.452Z,64.62
2023-02-27T21:16:09.546Z,64.99
2023-02-27T21:26:09.608Z,65.35
2023-02-27T21:36:11.482Z,65.74
2023-02-27T21:46:11.591Z,66.08
2023-02-27T21:56:11.472Z,66.46
2023-02-27T22:06:11.470Z,66.89
2023-02-27T22:16:11.686Z,67.28
2023-02-27T22:26:11.552Z,67.66
2023-02-27T22:36:11.481Z,67.85
2023-02-27T22:46:11.600Z,67.97
2023-02-27T22:56:11.649Z,68.02
2023-02-27T23:06:11.489Z,67.80
2023-02-27T23:16:12.975Z,67.66
2023-02-27T23:26:13.731Z,67.79
2023-02-27T23:36:14.918Z,67.87
2023-02-27T23:46:15.542Z,68.11
2023-02-27T23:56:15.704Z,68.38
